Terminal Aerodrome Forecast
Issued by NWS Pocatello, ID

Home | Current Version | Previous Version | Text Only | Print | Product List | Glossary On
Versions: 1 2 3 4 5 6 7 8 9 10 11 12 13
000
FTUS45 KPIH 071720
TAFBYI
TAF
KBYI 071720Z 0718/0818 01007KT P6SM VCSH FEW060 SCT180
     FM080000 06007KT P6SM VCSH SCT080 SCT180
     FM081400 07007KT P6SM SCT080 BKN130=

USA.gov is the U.S. government's official web portal to all federal, state and local government web resources and services.